createdAt,value
2022-12-04T00:00:13.524Z,1.12
2022-12-04T00:02:40.378Z,1.10
2022-12-04T00:05:07.542Z,1.11
2022-12-04T00:07:34.208Z,1.17
2022-12-04T00:10:00.772Z,1.15
2022-12-04T00:12:27.655Z,1.13
2022-12-04T00:15:24.520Z,1.10
2022-12-04T00:17:40.887Z,1.12
2022-12-04T00:20:07.825Z,1.07
2022-12-04T00:22:34.833Z,1.05
2022-12-04T00:25:01.388Z,1.06
2022-12-04T00:27:27.955Z,1.06
2022-12-04T00:29:54.656Z,1.09
2022-12-04T00:32:21.532Z,1.12
2022-12-04T00:34:48.064Z,1.14
2022-12-04T00:37:14.571Z,1.23
2022-12-04T00:39:41.116Z,1.18
2022-12-04T00:42:07.664Z,1.13
2022-12-04T00:44:34.246Z,1.11
2022-12-04T00:47:00.780Z,1.10
2022-12-04T00:49:27.309Z,1.11
2022-12-04T00:51:53.845Z,1.14
2022-12-04T00:54:30.957Z,1.14
2022-12-04T00:56:57.434Z,1.12
2022-12-04T00:59:23.948Z,1.12
2022-12-04T01:01:50.437Z,1.12
2022-12-04T01:04:16.900Z,1.17
2022-12-04T01:06:43.400Z,1.22
2022-12-04T01:09:09.879Z,1.17
2022-12-04T01:11:36.548Z,1.13
2022-12-04T01:14:03.110Z,1.09
2022-12-04T01:16:39.501Z,1.06
2022-12-04T01:19:08.116Z,1.09
2022-12-04T01:21:34.797Z,1.09
2022-12-04T01:24:01.568Z,1.07
2022-12-04T01:26:28.183Z,1.09
2022-12-04T01:28:54.713Z,1.10
2022-12-04T01:31:21.952Z,1.13
2022-12-04T01:33:49.543Z,1.14
2022-12-04T01:36:17.320Z,1.14
2022-12-04T01:38:44.313Z,1.10
2022-12-04T01:41:12.103Z,1.10
2022-12-04T01:43:39.300Z,1.11
2022-12-04T01:46:06.474Z,1.13
2022-12-04T01:48:33.119Z,1.11
2022-12-04T01:51:05.386Z,1.13
2022-12-04T01:53:33.354Z,1.14
2022-12-04T01:56:00.767Z,1.13
2022-12-04T01:58:31.055Z,1.15
2022-12-04T02:01:02.606Z,1.14
2022-12-04T02:03:33.444Z,1.13
2022-12-04T02:05:59.990Z,1.13
2022-12-04T02:08:27.513Z,1.12
2022-12-04T02:11:13.195Z,1.17
2022-12-04T02:13:49.243Z,1.15
2022-12-04T02:16:34.503Z,1.23
2022-12-04T02:19:20.944Z,1.22
2022-12-04T02:21:49.801Z,1.15
2022-12-04T02:24:31.544Z,1.11
2022-12-04T02:27:09.183Z,1.15
2022-12-04T02:29:54.561Z,1.15
2022-12-04T02:32:27.409Z,1.15
2022-12-04T02:34:56.682Z,1.16
2022-12-04T02:37:30.619Z,1.14
2022-12-04T02:40:04.766Z,1.17
2022-12-04T02:42:34.866Z,1.13
2022-12-04T02:45:04.664Z,1.12
2022-12-04T02:47:32.375Z,1.12
2022-12-04T02:49:59.852Z,1.12
2022-12-04T02:52:31.478Z,1.13
2022-12-04T02:55:06.749Z,1.10
2022-12-04T02:57:37.071Z,0.99
2022-12-04T03:00:06.004Z,0.98
2022-12-04T03:02:38.978Z,1.00
2022-12-04T03:05:09.642Z,1.03
2022-12-04T03:07:40.123Z,1.10
2022-12-04T03:10:09.855Z,1.14
2022-12-04T03:12:45.609Z,1.13
2022-12-04T03:15:14.899Z,1.11
2022-12-04T03:17:46.231Z,1.13
2022-12-04T03:20:14.284Z,1.21
2022-12-04T03:22:42.545Z,1.25
2022-12-04T03:25:09.874Z,1.17
2022-12-04T03:27:58.144Z,1.12
2022-12-04T03:30:24.775Z,1.06
2022-12-04T03:33:10.309Z,1.08
2022-12-04T03:35:46.371Z,1.13
2022-12-04T03:38:12.923Z,1.13
2022-12-04T03:40:43.860Z,1.13
2022-12-04T03:43:33.198Z,1.13
2022-12-04T03:46:04.532Z,1.16
2022-12-04T03:49:00.759Z,1.23
2022-12-04T03:51:34.266Z,1.20
2022-12-04T03:54:14.659Z,1.18
2022-12-04T03:56:56.038Z,1.17
2022-12-04T03:59:23.861Z,1.13
2022-12-04T04:01:51.653Z,1.15
2022-12-04T04:04:21.395Z,1.16
2022-12-04T04:06:52.898Z,1.17
2022-12-04T04:09:21.548Z,1.21
2022-12-04T04:12:00.844Z,1.27
2022-12-04T04:14:50.974Z,1.14
2022-12-04T04:17:39.146Z,1.19
2022-12-04T04:20:29.045Z,1.19
2022-12-04T04:23:17.247Z,1.14
2022-12-04T04:25:44.317Z,1.15
2022-12-04T04:28:29.589Z,1.12
2022-12-04T04:31:02.310Z,1.11
2022-12-04T04:33:29.709Z,1.08
2022-12-04T04:36:03.737Z,1.10
2022-12-04T04:38:43.618Z,1.11
2022-12-04T04:41:21.023Z,1.11
2022-12-04T04:44:06.233Z,1.14
2022-12-04T04:46:34.962Z,1.15
2022-12-04T04:49:03.125Z,1.16
2022-12-04T04:51:31.207Z,1.14
2022-12-04T04:53:59.244Z,1.17
2022-12-04T04:56:25.758Z,1.21
2022-12-04T04:58:52.288Z,1.28
2022-12-04T05:01:20.005Z,1.23
2022-12-04T05:03:46.520Z,1.23
2022-12-04T05:06:13.268Z,1.22
2022-12-04T05:08:40.050Z,1.18
2022-12-04T05:11:06.912Z,1.18
2022-12-04T05:13:33.399Z,1.21
2022-12-04T05:16:00.695Z,1.20
2022-12-04T05:18:27.642Z,1.22
2022-12-04T05:20:54.383Z,1.25
2022-12-04T05:23:21.071Z,1.32
2022-12-04T05:25:47.653Z,1.34
2022-12-04T05:28:14.265Z,1.29
2022-12-04T05:30:40.778Z,1.28
2022-12-04T05:33:07.322Z,1.34
2022-12-04T05:35:33.825Z,1.37
2022-12-04T05:38:00.309Z,1.34
2022-12-04T05:40:26.871Z,1.24
2022-12-04T05:42:53.352Z,1.21
2022-12-04T05:45:19.881Z,1.16
2022-12-04T05:47:46.439Z,1.13
2022-12-04T05:50:13.497Z,1.11
2022-12-04T05:52:40.027Z,1.09
2022-12-04T05:55:06.683Z,1.09
2022-12-04T05:57:33.194Z,1.13
2022-12-04T05:59:59.682Z,1.16
2022-12-04T06:02:26.227Z,1.16
2022-12-04T06:04:52.809Z,1.18
2022-12-04T06:07:19.345Z,1.25
2022-12-04T06:09:45.869Z,1.27
2022-12-04T06:12:12.361Z,1.27
2022-12-04T06:14:39.941Z,1.23
2022-12-04T06:17:07.032Z,1.22
2022-12-04T06:19:33.531Z,1.25
2022-12-04T06:22:00.052Z,1.25
2022-12-04T06:24:26.670Z,1.23
2022-12-04T06:29:46.271Z,1.23
2022-12-04T06:32:17.749Z,1.22
2022-12-04T06:34:46.095Z,1.20
2022-12-04T06:37:12.636Z,1.24
2022-12-04T06:39:39.138Z,1.26
2022-12-04T06:42:05.650Z,1.26
2022-12-04T06:44:32.236Z,1.27
2022-12-04T06:47:01.033Z,1.27
2022-12-04T06:49:27.893Z,1.32
2022-12-04T06:51:54.376Z,1.33
2022-12-04T06:54:21.011Z,1.34
2022-12-04T06:56:49.071Z,1.30
2022-12-04T06:59:15.719Z,1.31
2022-12-04T07:01:42.399Z,1.36
2022-12-04T07:04:08.974Z,1.35
2022-12-04T07:06:36.633Z,1.32
2022-12-04T07:09:03.118Z,1.33
2022-12-04T07:11:29.693Z,1.37
2022-12-04T07:13:56.398Z,1.36
2022-12-04T07:16:24.192Z,1.36
2022-12-04T07:18:51.418Z,1.39
2022-12-04T07:21:19.101Z,1.40
2022-12-04T07:23:48.924Z,1.40
2022-12-04T07:26:15.391Z,1.45
2022-12-04T07:28:42.098Z,1.41
2022-12-04T07:31:10.238Z,1.36
2022-12-04T07:33:36.956Z,1.38
2022-12-04T07:36:04.754Z,1.47
2022-12-04T07:38:31.938Z,1.50
2022-12-04T07:40:59.347Z,1.54
2022-12-04T07:43:27.233Z,1.53
2022-12-04T07:45:53.793Z,1.47
2022-12-04T07:48:20.570Z,1.42
2022-12-04T07:50:47.165Z,1.46
2022-12-04T07:53:13.661Z,1.45
2022-12-04T07:55:40.221Z,1.45
2022-12-04T07:58:06.797Z,1.50
2022-12-04T08:00:33.342Z,1.52
2022-12-04T08:02:59.883Z,1.51
2022-12-04T08:05:26.425Z,1.58
2022-12-04T08:07:52.957Z,1.61
2022-12-04T08:10:19.495Z,1.64
2022-12-04T08:12:45.973Z,1.64
2022-12-04T08:15:12.495Z,1.59
2022-12-04T08:17:39.009Z,1.56
2022-12-04T08:20:05.867Z,1.57
2022-12-04T08:22:32.423Z,1.59
2022-12-04T08:24:58.972Z,1.62
2022-12-04T08:27:25.543Z,1.64
2022-12-04T08:29:52.262Z,1.64
2022-12-04T08:32:18.875Z,1.69
2022-12-04T08:34:45.448Z,1.74
2022-12-04T08:37:12.066Z,1.70
2022-12-04T08:39:38.595Z,1.72
2022-12-04T08:42:05.147Z,1.68
2022-12-04T08:44:31.654Z,1.65
2022-12-04T08:46:58.172Z,1.65
2022-12-04T08:49:24.772Z,1.66
2022-12-04T08:51:51.290Z,1.69
2022-12-04T08:54:17.853Z,1.72
2022-12-04T08:56:44.652Z,1.72
2022-12-04T08:59:12.502Z,1.67
2022-12-04T09:01:39.259Z,1.68
2022-12-04T09:04:05.941Z,1.71
2022-12-04T09:06:32.542Z,1.72
2022-12-04T09:08:59.366Z,1.70
2022-12-04T09:11:27.103Z,1.70
2022-12-04T09:13:53.770Z,1.68
2022-12-04T09:16:21.847Z,1.69
2022-12-04T09:18:49.143Z,1.72
2022-12-04T09:21:16.653Z,1.73
2022-12-04T09:23:44.672Z,1.78
2022-12-04T09:26:22.211Z,1.79
2022-12-04T09:28:49.110Z,1.82
2022-12-04T09:31:15.766Z,1.89
2022-12-04T09:33:42.375Z,1.95
2022-12-04T09:36:09.024Z,1.98
2022-12-04T09:38:35.589Z,2.04
2022-12-04T09:41:20.774Z,2.06
2022-12-04T09:43:49.770Z,2.07
2022-12-04T09:46:22.254Z,2.14
2022-12-04T09:48:49.942Z,2.26
2022-12-04T09:51:19.422Z,2.38
2022-12-04T09:53:45.971Z,2.30
2022-12-04T09:56:14.007Z,2.23
2022-12-04T09:58:45.380Z,2.19
2022-12-04T10:01:20.730Z,2.08
2022-12-04T10:03:47.552Z,2.09
2022-12-04T10:06:16.864Z,2.16
2022-12-04T10:08:49.769Z,2.14
2022-12-04T10:11:32.492Z,2.13
2022-12-04T10:14:03.377Z,2.25
2022-12-04T10:16:39.833Z,2.22
2022-12-04T10:19:06.405Z,2.19
2022-12-04T10:21:38.142Z,2.19
2022-12-04T10:24:17.128Z,2.18
2022-12-04T10:26:45.154Z,2.22
2022-12-04T10:29:22.665Z,2.25
2022-12-04T10:31:50.951Z,2.27
2022-12-04T10:34:28.300Z,2.33
2022-12-04T10:36:59.327Z,2.41
2022-12-04T10:39:31.053Z,2.31
2022-12-04T10:42:20.273Z,2.30
2022-12-04T10:44:46.948Z,2.29
2022-12-04T10:47:13.698Z,2.31
2022-12-04T10:49:40.692Z,2.33
2022-12-04T10:52:07.475Z,2.35
2022-12-04T10:54:35.583Z,2.38
2022-12-04T10:57:02.921Z,2.38
2022-12-04T10:59:29.613Z,2.40
2022-12-04T11:02:26.042Z,2.39
2022-12-04T11:05:12.973Z,2.43
2022-12-04T11:07:45.502Z,2.45
2022-12-04T11:10:18.286Z,2.48
2022-12-04T11:12:58.116Z,2.52
2022-12-04T11:15:24.973Z,2.56
2022-12-04T11:17:52.790Z,2.70
2022-12-04T11:20:21.187Z,2.71
2022-12-04T11:22:52.530Z,2.62
2022-12-04T11:25:20.974Z,2.55
2022-12-04T11:27:49.822Z,2.49
2022-12-04T11:30:20.091Z,2.47
2022-12-04T11:32:46.875Z,2.45
2022-12-04T11:35:20.853Z,2.49
2022-12-04T11:37:59.450Z,2.51
2022-12-04T11:40:26.932Z,2.50
2022-12-04T11:43:12.446Z,2.51
2022-12-04T11:45:39.174Z,2.48
2022-12-04T11:48:15.861Z,2.47
2022-12-04T11:50:48.453Z,2.46
2022-12-04T11:53:15.223Z,2.46
2022-12-04T11:56:00.771Z,2.46
2022-12-04T11:58:46.181Z,2.46
2022-12-04T12:01:31.383Z,2.44
2022-12-04T12:04:06.171Z,2.46
2022-12-04T12:06:32.738Z,2.47
2022-12-04T12:09:02.008Z,2.45
2022-12-04T12:11:28.513Z,2.48
2022-12-04T12:14:08.676Z,2.50
2022-12-04T12:16:48.558Z,2.48
2022-12-04T12:19:29.652Z,2.49
2022-12-04T12:22:11.430Z,2.51
2022-12-04T12:24:45.663Z,2.54
2022-12-04T12:27:18.043Z,2.58
2022-12-04T12:30:01.312Z,2.56
2022-12-04T12:32:37.308Z,2.59
2022-12-04T12:35:05.301Z,2.60
2022-12-04T12:37:44.211Z,2.64
2022-12-04T12:40:19.834Z,2.67
2022-12-04T12:43:09.440Z,2.67
2022-12-04T12:45:38.896Z,2.69
2022-12-04T12:48:09.491Z,2.70
2022-12-04T12:50:42.417Z,2.73
2022-12-04T12:53:13.620Z,2.75
2022-12-04T12:55:47.486Z,2.78
2022-12-04T12:58:14.208Z,2.78
2022-12-04T13:00:54.439Z,2.80
2022-12-04T13:03:33.131Z,2.81
2022-12-04T13:06:06.267Z,2.84
2022-12-04T13:08:39.423Z,2.89
2022-12-04T13:11:06.029Z,2.94
2022-12-04T13:13:34.542Z,2.96
2022-12-04T13:16:13.209Z,3.02
2022-12-04T13:19:03.535Z,3.06
2022-12-04T13:21:30.085Z,3.01
2022-12-04T13:24:15.309Z,2.97
2022-12-04T13:26:50.771Z,2.89
2022-12-04T13:29:37.671Z,2.84
2022-12-04T13:32:27.664Z,2.80
2022-12-04T13:34:57.018Z,2.77
2022-12-04T13:37:34.033Z,2.73
2022-12-04T13:40:19.464Z,2.73
2022-12-04T13:42:46.172Z,2.69
2022-12-04T13:45:24.862Z,2.68
2022-12-04T13:47:58.748Z,2.68
2022-12-04T13:50:28.116Z,2.66
2022-12-04T13:52:54.753Z,2.65
2022-12-04T13:55:35.670Z,2.63
2022-12-04T13:58:03.529Z,2.62
2022-12-04T14:00:34.998Z,2.65
2022-12-04T14:03:06.233Z,2.66
2022-12-04T14:05:41.051Z,2.65
2022-12-04T14:08:20.804Z,2.61
2022-12-04T14:10:58.501Z,2.63
2022-12-04T14:13:27.863Z,2.63
2022-12-04T14:16:10.216Z,2.63
2022-12-04T14:18:38.171Z,2.63
2022-12-04T14:21:06.147Z,2.68
2022-12-04T14:23:37.822Z,2.63
2022-12-04T14:26:05.516Z,2.61
2022-12-04T14:28:35.998Z,2.58
2022-12-04T14:31:06.809Z,2.57
2022-12-04T14:33:37.708Z,2.54
2022-12-04T14:36:09.950Z,2.56
2022-12-04T14:38:36.828Z,2.55
2022-12-04T14:41:03.589Z,2.52
2022-12-04T14:43:50.022Z,2.53
2022-12-04T14:46:23.367Z,2.52
2022-12-04T14:48:55.667Z,2.50
2022-12-04T14:51:30.660Z,2.52
2022-12-04T14:54:15.734Z,2.52
2022-12-04T14:57:12.172Z,2.52
2022-12-04T14:59:47.454Z,2.49
2022-12-04T15:02:17.297Z,2.47
2022-12-04T15:04:46.329Z,2.48
2022-12-04T15:07:20.652Z,2.50
2022-12-04T15:10:09.303Z,2.53
2022-12-04T15:12:40.442Z,2.50
2022-12-04T15:15:15.093Z,2.49
2022-12-04T15:17:41.701Z,2.47
2022-12-04T15:20:15.235Z,2.47
2022-12-04T15:22:42.025Z,2.47
2022-12-04T15:25:15.771Z,2.49
2022-12-04T15:27:42.516Z,2.53
2022-12-04T15:30:15.986Z,2.55
2022-12-04T15:32:42.891Z,2.53
2022-12-04T15:35:11.582Z,2.49
2022-12-04T15:37:38.335Z,2.47
2022-12-04T15:40:08.988Z,2.45
2022-12-04T15:42:35.496Z,2.46
2022-12-04T15:45:21.533Z,2.45
2022-12-04T15:47:48.108Z,2.45
2022-12-04T15:50:17.749Z,2.45
2022-12-04T15:52:50.211Z,2.47
2022-12-04T15:55:17.985Z,2.49
2022-12-04T15:57:50.376Z,2.47
2022-12-04T16:00:25.396Z,2.46
2022-12-04T16:02:52.173Z,2.45
2022-12-04T16:05:21.812Z,2.45
2022-12-04T16:07:50.240Z,2.46
2022-12-04T16:10:33.454Z,2.46
2022-12-04T16:13:01.833Z,2.46
2022-12-04T16:15:37.283Z,2.45
2022-12-04T16:18:06.024Z,2.46
2022-12-04T16:20:36.415Z,2.46
2022-12-04T16:23:03.554Z,2.47
2022-12-04T16:25:31.698Z,2.44
2022-12-04T16:27:58.796Z,2.42
2022-12-04T16:30:25.566Z,2.39
2022-12-04T16:32:52.730Z,2.37
2022-12-04T16:35:19.771Z,2.36
2022-12-04T16:37:46.343Z,2.35
2022-12-04T16:40:13.406Z,2.34
2022-12-04T16:42:40.823Z,2.34
2022-12-04T16:45:18.412Z,2.36
2022-12-04T16:47:45.582Z,2.37
2022-12-04T16:50:12.142Z,2.41
2022-12-04T16:52:38.701Z,2.50
2022-12-04T16:55:14.553Z,2.50
2022-12-04T16:57:41.193Z,2.49
2022-12-04T17:00:08.215Z,2.44
2022-12-04T17:02:35.228Z,2.42
2022-12-04T17:05:01.875Z,2.35
2022-12-04T17:07:28.589Z,2.35
2022-12-04T17:09:55.276Z,2.39
2022-12-04T17:12:21.855Z,2.36
2022-12-04T17:14:48.448Z,2.36
2022-12-04T17:17:15.026Z,2.46
2022-12-04T17:19:41.570Z,2.41
2022-12-04T17:22:08.366Z,2.43
2022-12-04T17:24:37.853Z,2.42
2022-12-04T17:27:07.991Z,2.44
2022-12-04T17:29:34.543Z,2.41
2022-12-04T17:32:01.196Z,2.40
2022-12-04T17:34:27.825Z,2.34
2022-12-04T17:36:56.342Z,2.38
2022-12-04T17:39:23.631Z,2.30
2022-12-04T17:41:50.330Z,2.32
2022-12-04T17:44:16.925Z,2.36
2022-12-04T17:46:43.521Z,2.34
2022-12-04T17:49:10.144Z,2.33
2022-12-04T17:51:37.172Z,2.34
2022-12-04T17:54:04.496Z,2.31
2022-12-04T17:56:31.626Z,2.35
2022-12-04T17:58:58.294Z,2.32
2022-12-04T18:01:26.231Z,2.28
2022-12-04T18:03:53.878Z,2.25
2022-12-04T18:06:24.971Z,2.25
2022-12-04T18:08:52.156Z,2.22
2022-12-04T18:11:20.776Z,2.25
2022-12-04T18:13:48.531Z,2.22
2022-12-04T18:16:15.106Z,2.24
2022-12-04T18:18:41.786Z,2.25
2022-12-04T18:21:12.359Z,2.24
2022-12-04T18:23:44.529Z,2.22
2022-12-04T18:26:32.588Z,2.19
2022-12-04T18:28:59.261Z,2.18
2022-12-04T18:31:26.141Z,2.23
2022-12-04T18:33:52.733Z,2.21
2022-12-04T18:36:20.704Z,2.21
2022-12-04T18:38:47.548Z,2.29
2022-12-04T18:41:14.785Z,2.23
2022-12-04T18:43:42.581Z,2.21
2022-12-04T18:46:10.708Z,2.20
2022-12-04T18:48:37.787Z,2.22
2022-12-04T18:51:33.668Z,2.18
2022-12-04T18:54:01.574Z,2.09
2022-12-04T18:56:28.213Z,2.14
2022-12-04T18:58:58.698Z,2.15
2022-12-04T19:01:28.177Z,2.02
2022-12-04T19:03:58.732Z,1.98
2022-12-04T19:06:29.554Z,2.06
2022-12-04T19:08:56.156Z,1.95
2022-12-04T19:11:22.693Z,2.04
2022-12-04T19:13:49.432Z,1.94
2022-12-04T19:16:17.113Z,2.02
2022-12-04T19:18:45.373Z,1.98
2022-12-04T19:21:12.628Z,1.93
2022-12-04T19:23:39.174Z,1.95
2022-12-04T19:26:05.992Z,1.99
2022-12-04T19:28:32.810Z,1.91
2022-12-04T19:30:59.380Z,1.99
2022-12-04T19:33:26.253Z,1.94
2022-12-04T19:36:00.313Z,1.94
2022-12-04T19:38:27.251Z,1.91
2022-12-04T19:41:15.452Z,1.98
2022-12-04T19:43:43.612Z,1.93
2022-12-04T19:46:11.454Z,1.95
2022-12-04T19:48:38.530Z,1.91
2022-12-04T19:51:10.109Z,1.91
2022-12-04T19:53:40.882Z,1.94
2022-12-04T19:56:09.386Z,1.89
2022-12-04T19:58:36.085Z,1.78
2022-12-04T20:01:03.699Z,1.76
2022-12-04T20:03:30.331Z,1.90
2022-12-04T20:06:00.995Z,1.92
2022-12-04T20:08:27.578Z,1.81
2022-12-04T20:10:54.091Z,1.87
2022-12-04T20:13:20.622Z,1.62
2022-12-04T20:15:47.266Z,1.66
2022-12-04T20:18:13.811Z,1.60
2022-12-04T20:20:43.046Z,1.67
2022-12-04T20:23:09.585Z,1.75
2022-12-04T20:25:36.425Z,1.73
2022-12-04T20:28:02.983Z,1.78
2022-12-04T20:30:29.578Z,1.75
2022-12-04T20:32:56.585Z,1.70
2022-12-04T20:35:23.144Z,1.69
2022-12-04T20:37:49.650Z,1.65
2022-12-04T20:40:16.333Z,1.67
2022-12-04T20:42:42.862Z,1.66
2022-12-04T20:45:10.133Z,1.62
2022-12-04T20:47:36.791Z,1.61
2022-12-04T20:50:05.092Z,1.65
2022-12-04T20:52:31.743Z,1.66
2022-12-04T20:54:58.307Z,1.68
2022-12-04T20:57:24.936Z,1.70
2022-12-04T20:59:53.146Z,1.70
2022-12-04T21:02:20.166Z,1.74
2022-12-04T21:04:46.752Z,1.68
2022-12-04T21:07:13.300Z,1.71
2022-12-04T21:09:39.887Z,1.70
2022-12-04T21:12:26.528Z,1.69
2022-12-04T21:15:19.353Z,1.67
2022-12-04T21:17:45.911Z,1.65
2022-12-04T21:20:12.616Z,1.64
2022-12-04T21:22:39.334Z,1.67
2022-12-04T21:25:05.984Z,1.69
2022-12-04T21:27:32.534Z,1.68
2022-12-04T21:29:59.994Z,1.63
2022-12-04T21:32:26.629Z,1.64
2022-12-04T21:34:53.174Z,1.68
2022-12-04T21:37:19.784Z,1.59
2022-12-04T21:39:46.327Z,1.60
2022-12-04T21:42:31.314Z,1.67
2022-12-04T21:44:58.653Z,1.64
2022-12-04T21:47:25.466Z,1.66
2022-12-04T21:49:52.112Z,1.64
2022-12-04T21:52:19.094Z,1.64
2022-12-04T21:54:48.627Z,1.62
2022-12-04T21:57:15.167Z,1.62
2022-12-04T21:59:41.774Z,1.61
2022-12-04T22:02:08.380Z,1.62
2022-12-04T22:04:34.886Z,1.66
2022-12-04T22:07:01.896Z,1.66
2022-12-04T22:09:28.537Z,1.70
2022-12-04T22:11:55.098Z,1.69
2022-12-04T22:14:21.766Z,1.70
2022-12-04T22:16:51.854Z,1.72
2022-12-04T22:19:18.591Z,1.73
2022-12-04T22:21:45.186Z,1.73
2022-12-04T22:24:11.852Z,1.73
2022-12-04T22:26:38.749Z,1.68
2022-12-04T22:29:33.766Z,1.64
2022-12-04T22:31:52.143Z,1.62
2022-12-04T22:34:18.712Z,1.70
2022-12-04T22:36:45.312Z,1.67
2022-12-04T22:39:11.918Z,1.62
2022-12-04T22:41:38.563Z,1.57
2022-12-04T22:44:05.576Z,1.63
2022-12-04T22:46:32.438Z,1.64
2022-12-04T22:48:59.411Z,1.63
2022-12-04T22:51:27.152Z,1.66
2022-12-04T22:53:54.953Z,1.67
2022-12-04T22:56:26.141Z,1.67
2022-12-04T22:58:53.498Z,1.65
2022-12-04T23:01:27.549Z,1.66
2022-12-04T23:03:54.592Z,1.67
2022-12-04T23:06:22.531Z,1.67
2022-12-04T23:08:49.596Z,1.68
2022-12-04T23:11:20.007Z,1.73
2022-12-04T23:13:50.946Z,1.76
2022-12-04T23:16:20.363Z,1.73
2022-12-04T23:18:47.206Z,1.67
2022-12-04T23:21:13.907Z,1.65
2022-12-04T23:23:41.507Z,1.64
2022-12-04T23:26:12.337Z,1.61
2022-12-04T23:28:38.934Z,1.64
2022-12-04T23:31:06.011Z,1.61
2022-12-04T23:33:33.067Z,1.64
2022-12-04T23:36:00.945Z,1.64
2022-12-04T23:38:28.188Z,1.64
2022-12-04T23:41:05.430Z,1.68
2022-12-04T23:43:32.057Z,1.64
2022-12-04T23:45:58.572Z,1.62
2022-12-04T23:48:25.340Z,1.58
2022-12-04T23:50:52.264Z,1.58
2022-12-04T23:53:18.933Z,1.57
2022-12-04T23:55:54.892Z,1.58
2022-12-04T23:58:21.414Z,1.59
